Terminal Aerodrome Forecast
Issued by NWS Boston, MA

Home | Current Version | Previous Version | Text Only | Print | Product List | Glossary On
Versions: 1 2 3 4 5 6 7 8 9 10 11 12 13 14 15 16 17 18 19 20 21 22 23
000
FTUS41 KBOX 131739
TAFPVD
TAF
KPVD 131739Z 1318/1418 29020G35KT P6SM VCSH BKN040
     FM132100 29020G36KT P6SM SCT040
     FM140000 27014G31KT P6SM SKC
     FM141000 27006KT 6SM -SN OVC035
     FM141500 32008G18KT P6SM VCSH BKN030
     FM141700 31010KT P6SM BKN060=

USA.gov is the U.S. government's official web portal to all federal, state and local government web resources and services.